Flight Track Log - Related Links

Times and Time Zones

All times are in EDT time to prevent confusion due to time zone crossing. See the JIA2342 flight status page for this flight to view local times or setup timezone preferences in your user account.

Time Position Orientation Groundspeed Altitude Reporting Facility
EDT Latitude Longitude Course Direction KTS MPH feet Rate Location/Type
Thu 08:57:00 PM 38.8833 -77.0667 90° East 179 206 1,900  Level Potomac TRACON
Thu 08:59:00 PM 38.9782 -76.6602 57° Northeast  Level FlightAware Approximate
Thu 08:59:16 PM 38.9967 -77.1808 322° Northwest 256 295 6,800  Level Washington Center
Thu 09:00:00 PM 39.0271 -76.5355 67° East  Level FlightAware Approximate
Thu 09:00:15 PM 39.0581 -77.1206 37° Northeast 230 265 9,400  Level Washington Center
Thu 09:01:00 PM 39.0764 -76.4106 61° Northeast  Level FlightAware Approximate
Thu 09:01:16 PM 39.0697 -77.0086 82° East 212 244 11,000  Level Washington Center
Thu 09:02:00 PM 39.1167 -76.2837 90° East  Level FlightAware Approximate
Thu 09:02:14 PM 39.0814 -76.8886 83° East 282 325 12,800  Level Washington Center
Thu 09:03:15 PM 39.0953 -76.7711 81° East 308 354 14,700 1,377 Climbing Washington Center
Thu 09:04:16 PM 39.1067 -76.6456 83° East 330 380 15,600 1,140 Climbing Washington Center
Thu 09:05:16 PM 39.1203 -76.5228 82° East 346 398 17,000 1,169 Climbing Washington Center
Thu 09:06:14 PM 39.1336 -76.3944 82° East 351 404 17,900 1,210 Climbing Washington Center
Thu 09:07:15 PM 39.1469 -76.2686 82° East 351 404 19,400 1,426 Climbing Washington Center
Thu 09:08:16 PM 39.1644 -76.1244 81° East 358 412 20,800 1,261 Climbing Washington Center
Thu 09:09:14 PM 39.1794 -75.9906 82° East 364 419 21,900 1,119 Climbing Washington Center
Thu 09:10:14 PM 39.2089 -75.8594 74° East 374 430 23,000 992 Climbing Washington Center
Thu 09:11:15 PM 39.2864 -75.7606 45° Northeast 373 429 23,900 802 Climbing Washington Center
Thu 09:13:06 PM 39.4297 -75.5794 44° Northeast 430 495 25,300 737 Climbing New York Center
Thu 09:14:06 PM 39.5111 -75.4719 46° Northeast 418 481 26,000 694 Climbing New York Center
Thu 09:15:07 PM 39.5925 -75.3669 45° Northeast 413 475 26,700 694 Climbing New York Center
Thu 09:16:07 PM 39.6739 -75.2561 46° Northeast 413 475 27,400 694 Climbing New York Center
Thu 09:17:08 PM 39.7664 -75.1217 48° Northeast 422 486 28,100 600 Climbing New York Center
Thu 09:18:07 PM 39.8458 -75.0050 48° Northeast 429 494 28,600 454 Climbing New York Center
Thu 09:19:07 PM 39.9333 -74.8858 46° Northeast 435 501 29,000 198 Climbing New York Center
Thu 09:20:08 PM 40.0206 -74.7744 44° Northeast 441 507 29,000  Level New York Center
Thu 09:21:06 PM 40.1075 -74.6736 42° Northeast 452 520 29,000 -102 Level New York Center
Thu 09:22:06 PM 40.2133 -74.5517 41° Northeast 458 527 28,800 -650 Descending New York Center
Thu 09:23:06 PM 40.3153 -74.4294 42° Northeast 468 539 27,700 -1,033 Descending New York Center
Thu 09:24:08 PM 40.4125 -74.3147 42° Northeast 468 539 26,700 -984 Descending New York Center
Thu 09:25:08 PM 40.5033 -74.2047 43° Northeast 462 532 25,700 -1,032 Descending New York Center
Thu 09:26:45 PM 40.6511 -74.0239 43° Northeast 457 526 24,000 -650 Descending Boston Center
Thu 09:27:45 PM 40.7336 -73.9356 39° Northeast 432 497 24,000 -50 Level Boston Center
Thu 09:28:45 PM 40.8183 -73.8333 42° Northeast 419 482 23,900  Descending Boston Center
Thu 09:29:45 PM 40.8881 -73.7497 42° Northeast 419 482 24,000 -248 Climbing Boston Center
Thu 09:30:46 PM 41.0039 -73.6503 33° Northeast 419 482 23,400 -550 Descending Boston Center
Thu 09:31:45 PM 41.1244 -73.6692 353° North 418 481 22,900 -300 Descending Boston Center
Thu 09:32:46 PM 41.2494 -73.6797 356° North 424 488 22,800 -636 Descending Boston Center
Thu 09:33:57 PM 41.3681 -73.6903 356° North 430 495 21,500 -1,695 Descending Boston Center
Thu 09:34:57 PM 41.4972 -73.7011 356° North 409 471 19,100 -2,300 Descending Boston Center
Thu 09:35:57 PM 41.6139 -73.7089 357° North 383 441 16,900 -1,900 Descending Boston Center
Thu 09:36:57 PM 41.7033 -73.7164 356° North 364 419 15,300 -1,600 Descending Boston Center
Thu 09:37:57 PM 41.8053 -73.7267 356° North 342 394 13,700 -1,474 Descending Boston Center
Thu 09:38:51 PM 41.8928 -73.7342 356° North 342 394 12,500 -1,252 Descending Boston Center
Thu 09:39:52 PM 41.9886 -73.7417 357° North 343 395 11,300 -709 Descending Boston Center
Thu 09:40:58 PM 42.0761 -73.7492 356° North 332 382 11,000 -96 Descending Boston Center
Thu 09:41:57 PM 42.1675 -73.7594 355° North 310 357 11,100 -703 Climbing Boston Center
Thu 09:43:06 PM 42.2592 -73.7697 355° North 280 322 9,500 -1,615 Descending Boston Center
Thu 09:44:07 PM 42.3361 -73.7797 355° North 278 320 7,600 -1,835 Descending Boston Center
Thu 09:45:07 PM 42.4133 -73.7842 358° North 278 320 5,800 -1,835 Descending Boston Center
Thu 09:46:08 PM 42.4883 -73.7944 354° North 268 308 3,900 -1,461 Descending Boston Center
Thu 09:47:02 PM 42.5528 -73.7958 359° North 254 292 3,000 -626 Descending Boston Center
Thu 09:48:03 PM 42.6089 -73.8025 355° North 194 223 2,700 -295 Descending Boston Center

Login

Don't have an account? Register now (free) for customized features, flight alerts, and more!